Time;durP1;ratioP1;P1;durP2;ratioP2;P2;SDS_P1;SDS_P2;PMS_P1;PMS_P2;Temp;Humidity;BMP_temperature;BMP_pressure;BME280_temperature;BME280_humidity;BME280_pressure;Samples;Min_cycle;Max_cycle;Signal;HPM_P1;HPM_P2
2023/05/12 00:00:47;;;;;;;4.20;3.80;;;;;;;13.70;100.00;100411.63;4935082;29;20063;-84
2023/05/12 00:03:15;;;;;;;4.50;3.40;;;;;;;13.62;100.00;100413.13;4936355;29;20058;-84
2023/05/12 00:05:43;;;;;;;4.30;3.60;;;;;;;13.64;100.00;100415.59;4934592;29;20055;-84
2023/05/12 00:08:11;;;;;;;3.92;3.53;;;;;;;13.68;100.00;100417.41;4936134;29;20048;-84
2023/05/12 00:10:39;;;;;;;3.53;3.22;;;;;;;13.67;100.00;100424.03;4934476;29;20047;-84
2023/05/12 00:13:08;;;;;;;3.58;3.28;;;;;;;13.55;100.00;100407.22;4936068;29;20051;-84
2023/05/12 00:15:36;;;;;;;3.40;3.10;;;;;;;13.54;100.00;100413.84;4936081;29;20048;-85
2023/05/12 00:18:04;;;;;;;3.92;3.20;;;;;;;13.51;100.00;100409.78;4935896;29;20048;-84
2023/05/12 00:20:32;;;;;;;3.47;3.17;;;;;;;13.55;100.00;100407.22;4935801;29;20077;-85
2023/05/12 00:23:00;;;;;;;3.83;3.50;;;;;;;13.61;100.00;100410.69;4935912;29;20070;-84
2023/05/12 00:25:28;;;;;;;3.80;3.50;;;;;;;13.66;100.00;100403.16;4934493;29;20511;-84
2023/05/12 00:27:56;;;;;;;4.55;3.55;;;;;;;13.57;100.00;100415.97;4935831;29;20063;-85
2023/05/12 00:30:24;;;;;;;3.33;3.03;;;;;;;13.60;100.00;100407.13;4934611;29;20050;-85
2023/05/12 00:32:52;;;;;;;3.60;3.30;;;;;;;13.62;100.00;100410.38;4934499;29;20047;-85
2023/05/12 00:35:20;;;;;;;3.42;3.13;;;;;;;13.63;100.00;100405.72;4934440;29;20074;-85
2023/05/12 00:37:48;;;;;;;3.38;3.08;;;;;;;13.58;100.00;100401.09;4935634;29;20051;-84
2023/05/12 00:40:16;;;;;;;4.10;3.00;;;;;;;13.59;100.00;100408.22;4934323;29;20044;-85
2023/05/12 00:42:44;;;;;;;3.58;3.30;;;;;;;13.63;100.00;100406.50;4935585;29;20078;-85
2023/05/12 00:45:12;;;;;;;3.80;3.50;;;;;;;13.58;100.00;100406.59;4934242;29;20051;-86
2023/05/12 00:47:40;;;;;;;3.33;3.10;;;;;;;13.65;100.00;100401.50;4933379;29;20409;-86
2023/05/12 00:50:09;;;;;;;4.15;3.75;;;;;;;13.49;100.00;100397.47;4934324;29;20117;-86
2023/05/12 00:52:36;;;;;;;3.65;3.30;;;;;;;13.55;100.00;100407.22;4935499;29;20048;-86
2023/05/12 00:55:05;;;;;;;7.03;3.83;;;;;;;13.47;100.00;100399.69;4934136;29;20052;-85
2023/05/12 00:57:33;;;;;;;4.38;3.78;;;;;;;13.50;100.00;100399.09;4935313;29;20063;-85
2023/05/12 01:00:01;;;;;;;4.55;3.83;;;;;;;13.47;100.00;100402.44;4932611;29;20055;-84
2023/05/12 01:02:30;;;;;;;4.55;4.07;;;;;;;13.46;100.00;100400.75;4933858;29;20405;-85
2023/05/12 01:04:58;;;;;;;5.00;4.45;;;;;;;13.61;100.00;100400.50;4935138;29;20060;-86
2023/05/12 01:07:29;;;;;;;5.25;4.05;;;;;;;13.61;100.00;100389.53;4935085;29;20051;-86
2023/05/12 01:09:58;;;;;;;6.00;4.10;;;;;;;13.70;100.00;100390.41;4933961;29;20497;-87
2023/05/12 01:12:31;;;;;;;5.70;4.50;;;;;;;13.70;100.00;100387.66;4933928;29;20055;-86
2023/05/12 01:15:00;;;;;;;4.78;4.30;;;;;;;13.63;100.00;100392.78;4918330;29;20055;-86
2023/05/12 01:17:34;;;;;;;4.65;4.25;;;;;;;13.62;100.00;100399.41;4933758;29;20051;-86
2023/05/12 01:20:06;;;;;;;5.35;4.32;;;;;;;13.55;100.00;100391.53;4933796;29;20058;-87
2023/05/12 01:22:36;;;;;;;4.65;4.15;;;;;;;13.57;100.00;100397.56;4933743;29;20048;-86
2023/05/12 01:25:07;;;;;;;4.72;4.32;;;;;;;13.41;100.00;100391.50;4934884;29;20398;-86
2023/05/12 01:27:38;;;;;;;5.72;4.72;;;;;;;13.33;100.00;100403.19;4933668;29;20050;-87
2023/05/12 01:30:08;;;;;;;5.75;4.65;;;;;;;13.35;100.00;100406.44;4933559;29;20067;-84
2023/05/12 01:32:38;;;;;;;4.57;4.13;;;;;;;13.37;100.00;100404.22;4934813;29;20044;-88
2023/05/12 01:35:07;;;;;;;7.22;5.82;;;;;;;13.27;100.00;100396.16;4933645;29;20206;-89
2023/05/12 01:37:37;;;;;;;8.73;6.20;;;;;;;13.26;100.00;100395.34;4917703;29;20059;-89
2023/05/12 01:40:06;;;;;;;7.82;6.03;;;;;;;13.23;100.00;100393.22;4917878;29;20054;-88
2023/05/12 01:42:34;;;;;;;8.18;5.85;;;;;;;13.34;100.00;100402.06;4917489;29;20051;-89
2023/05/12 01:45:02;;;;;;;8.63;6.22;;;;;;;13.29;100.00;100404.91;4901884;29;20060;-89
2023/05/12 01:47:30;;;;;;;8.20;6.10;;;;;;;13.23;100.00;100408.88;4933501;29;20043;-90
2023/05/12 01:50:06;;;;;;;9.15;5.78;;;;;;;13.32;100.00;100404.31;4933546;29;20510;-88
2023/05/12 01:52:34;;;;;;;8.23;6.05;;;;;;;13.41;100.00;100407.19;4934641;29;20051;-87
2023/05/12 01:55:03;;;;;;;11.80;6.97;;;;;;;13.30;100.00;100412.88;4933461;29;20487;-88
2023/05/12 01:57:37;;;;;;;10.70;6.82;;;;;;;13.30;100.00;100404.63;4933350;29;20517;-88
2023/05/12 02:00:06;;;;;;;9.20;7.00;;;;;;;13.34;100.00;100407.56;4920751;29;20055;-87
2023/05/12 02:02:41;;;;;;;7.55;5.95;;;;;;;13.34;100.00;100410.31;4938601;29;20483;-87
2023/05/12 02:05:12;;;;;;;10.70;7.20;;;;;;;13.37;100.00;100406.97;4937164;29;20056;-87
2023/05/12 02:07:41;;;;;;;9.68;6.78;;;;;;;13.29;100.00;100402.16;4937015;29;20047;-87
2023/05/12 02:10:10;;;;;;;10.65;7.43;;;;;;;13.34;100.00;100413.06;4937034;29;20051;-87
2023/05/12 02:12:38;;;;;;;9.32;6.85;;;;;;;13.30;100.00;100406.56;4937022;29;20056;-86
2023/05/12 02:15:07;;;;;;;10.38;6.85;;;;;;;13.20;100.00;100413.03;4938137;29;20056;-86
2023/05/12 02:17:37;;;;;;;10.63;7.40;;;;;;;13.28;100.00;100403.28;4921617;29;20055;-86
2023/05/12 02:20:07;;;;;;;15.18;7.10;;;;;;;13.29;100.00;100403.00;4936775;29;20052;-88
2023/05/12 02:22:35;;;;;;;11.95;7.97;;;;;;;13.30;100.00;100399.13;4936796;29;20051;-87
2023/05/12 02:25:04;;;;;;;12.00;7.57;;;;;;;13.26;100.00;100392.59;4936750;29;20479;-87
2023/05/12 02:27:32;;;;;;;9.70;6.85;;;;;;;13.28;100.00;100409.63;4936873;29;20052;-87
2023/05/12 02:30:00;;;;;;;10.43;7.45;;;;;;;13.28;100.00;100397.78;4936796;29;20051;-88
2023/05/12 02:32:29;;;;;;;11.05;7.03;;;;;;;13.31;100.00;100403.50;4937802;29;20052;-87
2023/05/12 02:35:00;;;;;;;10.82;5.95;;;;;;;13.16;100.00;100399.09;4937738;29;20372;-88
2023/05/12 02:37:28;;;;;;;8.05;5.70;;;;;;;13.19;100.00;100394.13;4920564;29;20503;-87
2023/05/12 02:39:56;;;;;;;7.85;5.70;;;;;;;13.20;100.00;100406.75;4904941;29;20414;-87
2023/05/12 02:42:27;;;;;;;6.20;5.05;;;;;;;13.19;100.00;100407.88;4936511;29;20407;-86
2023/05/12 02:44:55;;;;;;;5.60;3.63;;;;;;;13.24;100.00;100403.09;4936492;29;20055;-87
2023/05/12 02:47:23;;;;;;;6.18;3.85;;;;;;;13.15;100.00;100404.91;4936349;29;20043;-87
2023/05/12 02:49:51;;;;;;;6.03;4.38;;;;;;;13.22;100.00;100405.31;4937592;29;20052;-88
2023/05/12 02:52:20;;;;;;;6.93;4.63;;;;;;;13.24;100.00;100402.28;4936356;29;20048;-88
2023/05/12 02:54:48;;;;;;;6.47;5.10;;;;;;;13.30;100.00;100398.31;4937450;29;20052;-88
2023/05/12 02:57:16;;;;;;;7.30;5.50;;;;;;;13.37;100.00;100406.97;4937470;29;20055;-87
2023/05/12 02:59:44;;;;;;;8.77;6.35;;;;;;;13.37;100.00;100404.22;4920498;29;20066;-87
2023/05/12 03:02:12;;;;;;;8.07;6.45;;;;;;;13.42;100.00;100411.56;4936092;29;20051;-87
2023/05/12 03:04:40;;;;;;;9.75;6.72;;;;;;;13.47;100.00;100405.19;4937650;29;20044;-87
2023/05/12 03:07:08;;;;;;;9.75;6.28;;;;;;;13.43;100.00;100403.00;4936030;29;20050;-87
2023/05/12 03:09:36;;;;;;;8.82;6.00;;;;;;;13.48;100.00;100401.34;4937148;29;20050;-87
2023/05/12 03:12:04;;;;;;;8.32;5.55;;;;;;;13.47;100.00;100394.19;4936501;29;20059;-88
2023/05/12 03:14:32;;;;;;;8.30;5.63;;;;;;;13.40;100.00;100398.09;4936060;29;20036;-87
2023/05/12 03:17:00;;;;;;;8.82;5.53;;;;;;;13.23;100.00;100390.47;4936310;29;20052;-87
2023/05/12 03:19:28;;;;;;;8.20;5.70;;;;;;;13.12;100.00;100384.34;4937061;29;20402;-87
2023/05/12 03:21:56;;;;;;;8.25;5.60;;;;;;;13.12;100.00;100389.00;4919944;29;20044;-87
2023/05/12 03:24:24;;;;;;;6.30;4.55;;;;;;;13.12;100.00;100381.59;4936915;29;20048;-87
2023/05/12 03:26:53;;;;;;;8.02;5.30;;;;;;;13.11;100.00;100388.19;4935586;29;20055;-87
2023/05/12 03:29:21;;;;;;;7.53;5.03;;;;;;;13.18;100.00;100396.03;4920099;29;20503;-87
2023/05/12 03:31:49;;;;;;;7.05;4.80;;;;;;;13.15;100.00;100388.41;4935563;29;20059;-87
2023/05/12 03:34:18;;;;;;;10.57;5.45;;;;;;;13.07;100.00;100383.59;4920049;29;20407;-87
2023/05/12 03:36:46;;;;;;;8.05;5.32;;;;;;;13.03;100.00;100383.41;4936671;29;20395;-88
2023/05/12 03:39:14;;;;;;;8.05;5.47;;;;;;;13.06;100.00;100385.56;4919594;29;20059;-88
2023/05/12 03:41:42;;;;;;;7.70;5.30;;;;;;;13.14;100.00;100384.03;4935530;29;20047;-88
2023/05/12 03:44:11;;;;;;;6.70;5.10;;;;;;;13.04;100.00;100383.09;4935473;29;20051;-88
2023/05/12 03:46:39;;;;;;;8.73;5.60;;;;;;;13.17;100.00;100378.75;4936427;29;20051;-87
2023/05/12 03:49:07;;;;;;;7.68;5.22;;;;;;;13.08;100.00;100383.31;4935810;29;20039;-88
2023/05/12 03:51:35;;;;;;;7.15;5.03;;;;;;;13.24;100.00;100394.03;4920718;29;20059;-88
2023/05/12 03:54:03;;;;;;;7.18;4.60;;;;;;;13.13;100.00;100388.72;4936231;29;20055;-88
2023/05/12 03:56:31;;;;;;;6.15;4.45;;;;;;;13.09;100.00;100382.19;4935311;29;20048;-88
2023/05/12 03:58:59;;;;;;;6.05;4.38;;;;;;;13.02;100.00;100384.50;4919324;29;20044;-87
2023/05/12 04:01:27;;;;;;;6.70;4.85;;;;;;;13.07;100.00;100376.19;4934893;29;20055;-88
2023/05/12 04:03:55;;;;;;;5.57;4.25;;;;;;;13.10;100.00;100380.28;4934960;29;20040;-89
2023/05/12 04:06:23;;;;;;;6.22;4.22;;;;;;;13.05;100.00;100386.66;4934831;29;20043;-87
2023/05/12 04:08:51;;;;;;;6.05;4.25;;;;;;;12.99;100.00;100385.09;4934974;29;20052;-87
2023/05/12 04:11:19;;;;;;;6.18;4.38;;;;;;;13.00;100.00;100387.56;4936175;29;20051;-87
2023/05/12 04:13:46;;;;;;;6.80;4.75;;;;;;;13.04;100.00;100391.34;4918868;29;20059;-86
2023/05/12 04:16:15;;;;;;;6.70;4.32;;;;;;;13.08;100.00;100383.31;4935948;29;20133;-87
2023/05/12 04:18:42;;;;;;;6.93;4.07;;;;;;;13.12;100.00;100387.09;4933396;29;20070;-86
2023/05/12 04:21:10;;;;;;;6.05;4.10;;;;;;;13.11;100.00;100403.88;4935150;29;20508;-87
2023/05/12 04:23:39;;;;;;;6.45;4.07;;;;;;;13.04;100.00;100388.59;4934094;29;20052;-87
2023/05/12 04:26:07;;;;;;;6.88;3.95;;;;;;;13.10;100.00;100397.56;4935609;29;20048;-87
2023/05/12 04:28:35;;;;;;;5.93;4.40;;;;;;;13.19;100.00;100400.41;4918705;29;20047;-82
2023/05/12 04:31:04;;;;;;;5.78;3.95;;;;;;;13.10;100.00;100392.06;4934483;29;20040;-82
2023/05/12 04:33:34;;;;;;;8.45;3.80;;;;;;;13.12;100.00;100392.59;4935847;29;20139;-83
2023/05/12 04:36:02;;;;;;;4.57;3.80;;;;;;;13.10;100.00;100403.03;4934071;29;20139;-86
2023/05/12 04:38:31;;;;;;;4.95;3.65;;;;;;;13.48;100.00;100407.63;4935483;29;20056;-86
2023/05/12 04:40:59;;;;;;;6.53;3.90;;;;;;;13.75;100.00;100417.03;4934619;29;20059;-86
2023/05/12 04:43:28;;;;;;;3.63;3.17;;;;;;;13.83;100.00;100415.47;4919050;29;20391;-87
2023/05/12 04:46:00;;;;;;;3.88;3.08;;;;;;;13.90;100.00;100424.16;4934122;29;20380;-87
2023/05/12 04:48:28;;;;;;;3.67;2.70;;;;;;;14.06;100.00;100419.13;4918482;29;20055;-87
2023/05/12 04:51:00;;;;;;;4.40;3.38;;;;;;;14.18;100.00;100423.31;4935685;29;20047;-87
2023/05/12 04:53:33;;;;;;;5.55;3.95;;;;;;;14.23;100.00;100426.75;4934194;29;20486;-87
2023/05/12 04:56:02;;;;;;;4.05;3.38;;;;;;;14.31;100.00;100422.47;4934373;29;20052;-86
2023/05/12 04:58:35;;;;;;;3.97;3.08;;;;;;;14.31;100.00;100419.69;4933888;29;20075;-84
2023/05/12 05:01:03;;;;;;;4.82;3.03;;;;;;;14.32;100.00;100431.53;4932777;29;20052;-84
2023/05/12 05:03:32;;;;;;;3.80;3.20;;;;;;;14.28;100.00;100431.34;4934348;29;20047;-83
2023/05/12 05:06:00;;;;;;;3.20;2.85;;;;;;;14.35;100.00;100431.72;4932774;29;20036;-83
2023/05/12 05:08:29;;;;;;;3.67;3.03;;;;;;;14.34;100.00;100434.78;4934249;29;20376;-83
2023/05/12 05:10:57;;;;;;;3.47;2.80;;;;;;;14.38;100.00;100435.81;4933857;29;20403;-83
2023/05/12 05:13:27;;;;;;;5.47;2.80;;;;;;;14.42;100.00;100439.56;4933905;29;20051;-83
2023/05/12 05:15:55;;;;;;;3.50;2.72;;;;;;;14.40;100.00;100447.31;4932901;29;20051;-83
2023/05/12 05:18:24;;;;;;;4.72;2.92;;;;;;;14.33;100.00;100433.97;4933868;29;20431;-82
2023/05/12 05:20:54;;;;;;;3.35;2.92;;;;;;;14.27;100.00;100435.19;4931865;29;20048;-83
2023/05/12 05:23:26;;;;;;;8.32;2.92;;;;;;;14.36;100.00;100438.03;4927495;29;20036;-83
2023/05/12 05:25:54;;;;;;;3.47;2.67;;;;;;;14.47;100.00;100452.41;4929264;29;20048;-83
2023/05/12 05:28:23;;;;;;;6.40;3.25;;;;;;;14.54;100.00;100440.94;4930310;29;20056;-83
2023/05/12 05:30:51;;;;;;;3.97;2.65;;;;;;;14.61;100.00;100460.59;4916134;29;20052;-83
2023/05/12 05:33:20;;;;;;;3.28;2.97;;;;;;;14.57;100.00;100456.88;4932521;29;20415;-83
2023/05/12 05:35:48;;;;;;;3.13;2.80;;;;;;;14.51;100.00;100456.97;4933772;29;20044;-82
2023/05/12 05:38:16;;;;;;;2.90;2.35;;;;;;;14.53;100.00;100462.19;4933549;29;20071;-82
2023/05/12 05:40:45;;;;;;;4.53;2.67;;;;;;;14.29;100.00;100445.91;4933482;29;20047;-83
2023/05/12 05:43:21;;;;;;;4.60;2.47;;;;;;;14.27;100.00;100454.47;4934577;29;20044;-82
2023/05/12 05:45:50;;;;;;;2.63;2.20;;;;;;;14.38;100.00;100463.34;4933730;29;20047;-82
2023/05/12 05:48:20;;;;;;;3.67;2.80;;;;;;;14.37;100.00;100459.75;4933875;29;20052;-82
2023/05/12 05:50:51;;;;;;;2.50;2.30;;;;;;;14.43;100.00;100462.41;4933757;29;20048;-82
2023/05/12 05:53:20;;;;;;;2.83;2.55;;;;;;;14.44;100.00;100467.59;4933740;29;20047;-82
2023/05/12 05:55:49;;;;;;;3.42;2.30;;;;;;;14.47;100.00;100480.75;4933580;29;20047;-82
2023/05/12 05:58:17;;;;;;;2.40;2.20;;;;;;;14.58;100.00;100475.00;4934679;29;20050;-82
2023/05/12 06:00:48;;;;;;;2.58;2.38;;;;;;;14.60;100.00;100472.75;4917254;29;20055;-82
2023/05/12 06:03:16;;;;;;;2.20;2.00;;;;;;;14.63;100.00;100461.94;4933466;29;20506;-82
2023/05/12 06:05:44;;;;;;;2.50;2.20;;;;;;;14.55;100.00;100467.34;4933386;29;20047;-82
2023/05/12 06:08:12;;;;;;;2.10;2.00;;;;;;;14.45;100.00;100460.97;4933268;29;20067;-82
2023/05/12 06:10:40;;;;;;;3.75;1.95;;;;;;;14.51;100.00;100470.75;4934637;29;20458;-83
2023/05/12 06:13:08;;;;;;;2.45;2.08;;;;;;;14.63;100.00;100469.41;4933423;29;20371;-82
2023/05/12 06:15:36;;;;;;;5.15;2.00;;;;;;;14.67;100.00;100472.34;4933348;29;20047;-82
2023/05/12 06:18:04;;;;;;;2.00;1.85;;;;;;;14.56;100.00;100469.00;4934528;29;20399;-82
2023/05/12 06:20:32;;;;;;;2.50;2.10;;;;;;;14.63;100.00;100463.88;4933336;29;20051;-82
2023/05/12 06:23:01;;;;;;;2.33;2.13;;;;;;;14.60;100.00;100473.59;4933372;29;20051;-82
2023/05/12 06:25:32;;;;;;;2.58;2.38;;;;;;;14.72;100.00;100466.72;4934500;29;20528;-82
2023/05/12 06:28:00;;;;;;;3.65;2.50;;;;;;;14.72;100.00;100470.28;4933125;29;20059;-82
2023/05/12 06:30:28;;;;;;;2.30;2.10;;;;;;;14.71;100.00;100481.63;4933259;29;20048;-82
2023/05/12 06:32:56;;;;;;;3.13;2.40;;;;;;;14.75;100.00;100471.63;4934338;29;20051;-82
2023/05/12 06:35:24;;;;;;;4.10;2.40;;;;;;;14.72;100.00;100462.00;4934201;29;20495;-82
2023/05/12 06:37:52;;;;;;;3.00;2.25;;;;;;;14.68;100.00;100469.28;4934229;29;20059;-83
2023/05/12 06:40:20;;;;;;;2.97;2.35;;;;;;;14.76;100.00;100476.81;4934040;29;20051;-83
2023/05/12 06:42:48;;;;;;;2.45;2.13;;;;;;;14.89;100.00;100485.34;4934180;29;20082;-83
2023/05/12 06:45:19;;;;;;;2.50;2.25;;;;;;;14.89;100.00;100479.84;4919313;29;20048;-83
2023/05/12 06:47:49;;;;;;;2.60;2.30;;;;;;;14.86;100.00;100488.75;4936344;29;20052;-84
2023/05/12 06:50:18;;;;;;;3.85;2.40;;;;;;;14.94;100.00;100485.22;4936338;29;20039;-83
2023/05/12 06:52:51;;;;;;;2.63;2.38;;;;;;;14.94;100.00;100485.22;4921383;29;20070;-83
2023/05/12 06:55:19;;;;;;;5.15;2.63;;;;;;;14.84;100.00;100489.06;4937507;29;20052;-83
2023/05/12 06:57:50;;;;;;;3.08;2.42;;;;;;;14.85;100.00;100487.09;4937462;29;20051;-83
2023/05/12 07:00:18;;;;;;;2.90;2.28;;;;;;;14.82;100.00;100490.47;4937221;29;20044;-83
2023/05/12 07:02:46;;;;;;;2.33;2.13;;;;;;;14.90;100.00;100489.72;4937188;29;20048;-83
2023/05/12 07:05:14;;;;;;;2.55;2.35;;;;;;;14.77;100.00;100494.19;4937301;29;20518;-83
2023/05/12 07:07:44;;;;;;;4.07;2.45;;;;;;;14.72;100.00;100492.31;4937170;29;20463;-83
2023/05/12 07:10:12;;;;;;;2.70;2.50;;;;;;;14.78;100.00;100488.34;4937195;29;20371;-83
2023/05/12 07:12:40;;;;;;;2.72;2.50;;;;;;;14.92;100.00;100495.75;4937116;29;20052;-83
2023/05/12 07:15:08;;;;;;;2.50;2.22;;;;;;;15.16;100.00;100495.44;4937094;29;20047;-83
2023/05/12 07:17:36;;;;;;;2.85;2.22;;;;;;;15.18;100.00;100495.13;4935896;29;20051;-83
2023/05/12 07:20:05;;;;;;;3.05;2.42;;;;;;;15.26;100.00;100488.84;4936985;29;20479;-83
2023/05/12 07:22:33;;;;;;;2.65;2.45;;;;;;;15.42;100.00;100500.34;4935949;29;20050;-83
2023/05/12 07:25:06;;;;;;;2.63;2.35;;;;;;;15.51;100.00;100508.66;4937116;29;20402;-83
2023/05/12 07:27:34;;;;;;;3.60;2.22;;;;;;;15.44;100.00;100505.53;4937258;29;20459;-83
2023/05/12 07:30:02;;;;;;;2.28;2.05;;;;;;;15.48;100.00;100500.22;4936948;29;20051;-84
2023/05/12 07:32:31;;;;;;;2.17;1.92;;;;;;;15.55;100.00;100506.88;4936851;29;20047;-83
2023/05/12 07:34:59;;;;;;;2.05;1.95;;;;;;;15.61;100.00;100510.34;4936723;29;20044;-84
2023/05/12 07:37:27;;;;;;;2.40;2.20;;;;;;;15.61;100.00;100507.59;4936826;29;20058;-84
2023/05/12 07:39:55;;;;;;;2.10;1.90;;;;;;;15.77;100.00;100509.91;4936589;29;20415;-84
2023/05/12 07:42:23;;;;;;;2.08;1.88;;;;;;;15.90;100.00;100505.44;4936643;29;20055;-83
2023/05/12 07:44:51;;;;;;;2.78;2.15;;;;;;;15.90;100.00;100502.69;4935471;29;20048;-84
2023/05/12 07:47:19;;;;;;;2.38;2.17;;;;;;;15.76;100.00;100503.59;4936493;29;20047;-83
2023/05/12 07:49:46;;;;;;;3.38;2.10;;;;;;;16.00;100.00;100505.19;4936531;29;20136;-83
2023/05/12 07:52:14;;;;;;;2.55;2.35;;;;;;;15.94;100.00;100504.50;4936527;29;20059;-83
2023/05/12 07:54:42;;;;;;;2.88;2.58;;;;;;;15.93;100.00;100496.56;4936496;29;20055;-83
2023/05/12 07:57:10;;;;;;;3.35;2.38;;;;;;;16.20;100.00;100497.47;4935923;29;20391;-83
2023/05/12 07:59:39;;;;;;;2.65;2.45;;;;;;;16.12;100.00;100502.63;4936347;29;20048;-83
2023/05/12 08:02:06;;;;;;;3.08;2.83;;;;;;;16.10;100.00;100510.44;4936167;29;20129;-82
2023/05/12 08:04:34;;;;;;;4.20;3.03;;;;;;;15.81;100.00;100511.75;4936264;29;20048;-83
2023/05/12 08:07:03;;;;;;;3.65;2.38;;;;;;;15.89;100.00;100507.38;4936134;29;20059;-83
2023/05/12 08:09:30;;;;;;;2.50;2.30;;;;;;;15.96;100.00;100509.72;4936094;29;20068;-83
2023/05/12 08:12:00;;;;;;;2.80;2.60;;;;;;;16.03;100.00;100506.50;4936207;29;20043;-83
2023/05/12 08:14:28;;;;;;;2.72;2.50;;;;;;;15.97;100.00;100508.56;4936229;29;20051;-83
2023/05/12 08:16:56;;;;;;;2.60;2.38;;;;;;;15.95;100.00;100508.09;4934839;29;20415;-83
2023/05/12 08:19:23;;;;;;;2.30;2.10;;;;;;;16.01;100.00;100512.34;4935861;29;20058;-83
2023/05/12 08:21:52;;;;;;;2.03;1.88;;;;;;;16.01;100.00;100511.50;4934764;29;20395;-83
2023/05/12 08:24:20;;;;;;;2.97;2.10;;;;;;;15.88;100.00;100524.28;4935940;29;20051;-82
2023/05/12 08:26:48;;;;;;;3.13;2.38;;;;;;;16.03;100.00;100523.88;4934644;29;20406;-83
2023/05/12 08:29:16;;;;;;;2.25;2.05;;;;;;;16.06;100.00;100525.19;4935758;29;20514;-83
2023/05/12 08:31:44;;;;;;;2.67;2.40;;;;;;;16.08;100.00;100528.44;4935770;29;20054;-83
2023/05/12 08:34:12;;;;;;;3.50;1.88;;;;;;;16.07;100.00;100526.78;4935793;29;20050;-84
2023/05/12 08:36:40;;;;;;;2.03;1.92;;;;;;;15.92;100.00;100519.72;4935674;29;20044;-83
2023/05/12 08:39:11;;;;;;;1.92;1.70;;;;;;;16.08;100.00;100532.00;4935510;29;20051;-83
2023/05/12 08:42:02;;;;;;;2.80;2.00;;;;;;;15.82;100.00;100534.63;4935716;29;20501;-83
2023/05/12 08:44:30;;;;;;;1.20;1.10;;;;;;;15.84;100.00;100535.13;4935645;29;20043;-83
2023/05/12 08:47:00;;;;;;;1.58;1.30;;;;;;;15.95;100.00;100530.16;4934256;29;20043;-83
2023/05/12 08:49:31;;;;;;;1.05;0.75;;;;;;;15.72;100.00;100539.28;4935321;29;20066;-83
2023/05/12 08:52:01;;;;;;;0.90;0.63;;;;;;;15.78;100.00;100537.19;4935441;29;20047;-83
2023/05/12 08:54:29;;;;;;;0.98;0.47;;;;;;;15.69;100.00;100539.09;4935350;29;20044;-83
2023/05/12 08:56:58;;;;;;;0.93;0.80;;;;;;;15.56;100.00;100524.25;4935222;29;20040;-83
2023/05/12 08:59:29;;;;;;;1.60;0.77;;;;;;;15.64;100.00;100536.47;4935222;29;20125;-83
2023/05/12 09:01:57;;;;;;;1.35;0.70;;;;;;;15.81;100.00;100541.28;4934097;29;20055;-83
2023/05/12 09:04:26;;;;;;;1.77;0.52;;;;;;;16.02;100.00;100536.03;4935247;29;20051;-83
2023/05/12 09:06:54;;;;;;;1.02;0.68;;;;;;;16.27;100.00;100541.19;4935375;29;20058;-83
2023/05/12 09:09:24;;;;;;;0.82;0.60;;;;;;;16.42;100.00;100542.69;4934305;29;20058;-83
2023/05/12 09:11:56;;;;;;;1.50;0.70;;;;;;;16.37;98.52;100543.63;4934101;29;20051;-83
2023/05/12 09:14:25;;;;;;;0.98;0.55;;;;;;;16.51;100.00;100538.81;4935171;29;20055;-82
2023/05/12 09:16:58;;;;;;;2.00;0.60;;;;;;;16.60;98.69;100543.53;4934997;29;20044;-82
2023/05/12 09:19:27;;;;;;;1.13;0.63;;;;;;;16.48;97.68;100560.75;4934970;29;20047;-83
2023/05/12 09:21:55;;;;;;;1.15;0.30;;;;;;;16.48;96.82;100560.75;4935098;29;20403;-83
2023/05/12 09:24:43;;;;;;;0.40;0.40;;;;;;;16.56;98.14;100553.63;4934997;29;20426;-83
2023/05/12 09:27:11;;;;;;;0.50;0.50;;;;;;;16.38;97.22;100551.59;4935274;29;20044;-82
2023/05/12 09:29:48;;;;;;;1.05;0.50;;;;;;;16.19;96.00;100546.34;4934838;29;20052;-82
2023/05/12 09:32:34;;;;;;;1.65;0.40;;;;;;;16.50;98.43;100552.94;4933745;29;20043;-83
2023/05/12 09:35:09;;;;;;;1.33;0.75;;;;;;;16.82;95.71;100542.59;4934938;29;20048;-82
2023/05/12 09:37:41;;;;;;;0.40;0.40;;;;;;;16.79;92.20;100551.53;4934792;29;20047;-82
2023/05/12 09:40:10;;;;;;;0.40;0.40;;;;;;;16.84;96.11;100536.72;4934620;29;20047;-82
2023/05/12 09:42:41;;;;;;;1.30;0.40;;;;;;;17.13;92.81;100536.13;4934714;29;20050;-83
2023/05/12 09:45:09;;;;;;;0.50;0.28;;;;;;;17.23;93.30;100539.69;4934722;29;20059;-83
2023/05/12 09:47:38;;;;;;;0.65;0.50;;;;;;;16.92;91.70;100533.19;4934720;29;20062;-83
2023/05/12 09:50:07;;;;;;;0.70;0.47;;;;;;;16.72;92.39;100546.47;4934607;29;20542;-82
2023/05/12 09:52:37;;;;;;;0.68;0.65;;;;;;;16.79;92.25;100543.25;4934701;29;20396;-83
2023/05/12 09:55:10;;;;;;;0.60;0.60;;;;;;;16.76;92.24;100541.94;4934613;29;20055;-82
2023/05/12 09:57:40;;;;;;;0.35;0.35;;;;;;;16.82;92.11;100544.53;4934718;29;20506;-82
2023/05/12 10:00:13;;;;;;;0.75;0.40;;;;;;;16.90;93.03;100532.69;4934784;29;20521;-84
2023/05/12 10:03:13;;;;;;;0.40;0.30;;;;;;;16.98;89.73;100529.13;4933383;29;20063;-83
2023/05/12 10:06:11;;;;;;;0.50;0.50;;;;;;;17.23;93.58;100531.41;4934537;29;20048;-83
2023/05/12 10:08:42;;;;;;;0.52;0.52;;;;;;;17.19;90.00;100545.91;4933820;29;20410;-83
2023/05/12 10:11:10;;;;;;;0.68;0.68;;;;;;;17.10;89.59;100536.78;4934563;29;20380;-84
2023/05/12 10:13:39;;;;;;;0.65;0.65;;;;;;;16.80;92.09;100533.81;4934453;29;20062;-82
2023/05/12 10:16:08;;;;;;;0.32;0.32;;;;;;;17.18;90.44;100535.97;4934446;29;20051;-82
2023/05/12 10:18:37;;;;;;;2.30;0.50;;;;;;;17.11;89.56;100537.59;4934541;29;20051;-82
2023/05/12 10:21:07;;;;;;;0.68;0.55;;;;;;;17.55;90.12;100537.56;4930848;29;20044;-82
2023/05/12 10:23:35;;;;;;;0.50;0.40;;;;;;;17.45;87.07;100539.50;4929923;29;20058;-83
2023/05/12 10:26:05;;;;;;;1.05;0.52;;;;;;;17.55;88.35;100543.88;4936194;29;20047;-83
2023/05/12 10:28:33;;;;;;;0.77;0.47;;;;;;;17.72;88.62;100539.47;4936602;29;20048;-83
2023/05/12 10:31:04;;;;;;;0.40;0.32;;;;;;;17.75;87.35;100540.75;4936797;29;20047;-84
2023/05/12 10:33:32;;;;;;;0.68;0.40;;;;;;;17.30;86.59;100551.09;4946154;28;20044;-83
2023/05/12 10:36:00;;;;;;;0.70;0.40;;;;;;;17.20;86.52;100549.47;4918630;29;20044;-84
2023/05/12 10:38:36;;;;;;;0.38;0.38;;;;;;;17.60;86.03;100556.75;4922874;29;20062;-84
2023/05/12 10:41:05;;;;;;;0.32;0.30;;;;;;;17.55;86.23;100556.94;4931749;29;20059;-83
2023/05/12 10:43:42;;;;;;;2.13;0.35;;;;;;;17.55;83.76;100559.69;4935439;29;20051;-85
2023/05/12 10:46:19;;;;;;;0.45;0.30;;;;;;;17.55;84.86;100570.75;4927181;29;20507;-84
2023/05/12 10:48:56;;;;;;;0.68;0.20;;;;;;;17.56;83.54;100572.38;4920895;29;20050;-83
2023/05/12 10:51:27;;;;;;;0.13;0.13;;;;;;;17.49;83.83;100566.53;4936321;28;20499;-83
2023/05/12 10:53:57;;;;;;;0.20;0.20;;;;;;;17.26;83.32;100564.75;4936627;29;20399;-84
2023/05/12 10:56:40;;;;;;;0.40;0.20;;;;;;;17.29;83.71;100566.03;4937500;29;20067;-83
2023/05/12 10:59:22;;;;;;;0.47;0.17;;;;;;;17.24;85.86;100566.22;4937419;29;20051;-84
2023/05/12 11:01:58;;;;;;;0.20;0.20;;;;;;;17.34;83.38;100579.72;4937433;29;20051;-84
2023/05/12 11:04:48;;;;;;;0.38;0.30;;;;;;;17.44;84.72;100568.31;4937459;29;20060;-85
2023/05/12 11:07:22;;;;;;;0.32;0.25;;;;;;;17.47;84.45;100580.69;4937377;29;20044;-83
2023/05/12 11:09:52;;;;;;;0.30;0.30;;;;;;;17.50;84.46;100573.69;4924581;29;20064;-83
2023/05/12 11:12:26;;;;;;;;;;;;;;;17.46;83.27;100568.78;4918804;29;20052;-83
2023/05/12 11:14:54;;;;;;;0.25;0.20;;;;;;;17.54;83.55;100569.13;4916197;29;19935;-84
2023/05/12 11:17:22;;;;;;;0.40;0.25;;;;;;;17.29;84.15;100568.81;4918173;29;20411;-83
2023/05/12 11:19:51;;;;;;;0.43;0.20;;;;;;;17.22;84.71;100562.97;4916883;29;20063;-84
2023/05/12 11:22:21;;;;;;;0.35;0.30;;;;;;;17.47;84.54;100564.09;4918238;29;20059;-85
2023/05/12 11:24:51;;;;;;;0.57;0.40;;;;;;;17.73;84.54;100561.28;4932681;29;20055;-84
2023/05/12 11:27:21;;;;;;;0.40;0.32;;;;;;;17.88;83.99;100553.56;4918146;29;20403;-83
2023/05/12 11:30:01;;;;;;;0.28;0.20;;;;;;;18.02;83.47;100549.81;4932610;29;20044;-84